createdAt,value
2023-02-25T00:02:21.488Z,97373.38
2023-02-25T00:04:49.828Z,97377.94
2023-02-25T00:07:18.332Z,97389.63
2023-02-25T00:09:46.928Z,97375.25
2023-02-25T00:12:15.450Z,97381.78
2023-02-25T00:14:43.737Z,97388.34
2023-02-25T00:17:13.950Z,97380.41
2023-02-25T00:19:42.969Z,97380.97
2023-02-25T00:22:11.362Z,97387.41
2023-02-25T00:24:40.148Z,97386.13
2023-02-25T00:27:08.568Z,97398.00
2023-02-25T00:29:36.899Z,97379.56
2023-02-25T00:32:07.512Z,97380.88
2023-02-25T00:34:40.857Z,97384.81
2023-02-25T00:37:11.811Z,97371.97
2023-02-25T00:39:43.387Z,97398.59
2023-02-25T00:42:13.444Z,97387.16
2023-02-25T00:44:46.390Z,97394.03
2023-02-25T00:47:15.392Z,97392.75
2023-02-25T00:49:49.104Z,97388.94
2023-02-25T00:52:20.724Z,97395.47
2023-02-25T00:54:49.273Z,97387.13
2023-02-25T00:57:18.126Z,97396.28
2023-02-25T00:59:48.599Z,97382.25
2023-02-25T01:02:17.124Z,97398.97
2023-02-25T01:04:45.574Z,97397.41
2023-02-25T01:07:16.478Z,97400.69
2023-02-25T01:09:44.979Z,97392.81
2023-02-25T01:12:13.485Z,97393.13
2023-02-25T01:14:41.873Z,97396.09
2023-02-25T01:17:11.066Z,97405.28
2023-02-25T01:19:40.208Z,97393.00
2023-02-25T01:22:09.147Z,97413.84
2023-02-25T01:24:39.194Z,97392.03
2023-02-25T01:27:09.133Z,97399.59
2023-02-25T01:29:41.572Z,97418.03
2023-02-25T01:32:14.465Z,97418.34
2023-02-25T01:34:43.100Z,97417.97
2023-02-25T01:37:12.153Z,97423.53
2023-02-25T01:39:42.078Z,97439.84
2023-02-25T01:42:15.514Z,97413.25
2023-02-25T01:45:17.511Z,97431.41
2023-02-25T01:47:50.100Z,97433.84
2023-02-25T01:50:19.651Z,97424.88
2023-02-25T01:52:48.669Z,97426.41
2023-02-25T01:55:19.629Z,97419.06
2023-02-25T01:57:50.787Z,97418.59
2023-02-25T02:00:20.002Z,97426.88
2023-02-25T02:02:52.569Z,97421.84
2023-02-25T02:05:22.133Z,97422.44
2023-02-25T02:07:51.069Z,97413.31
2023-02-25T02:10:20.959Z,97419.22
2023-02-25T02:12:49.594Z,97422.53
2023-02-25T02:15:17.907Z,97425.59
2023-02-25T02:17:50.360Z,97416.75
2023-02-25T02:20:25.399Z,97402.78
2023-02-25T02:23:22.129Z,97412.03
2023-02-25T02:26:26.408Z,97424.06
2023-02-25T02:29:24.690Z,97423.84
2023-02-25T02:32:03.787Z,97417.13
2023-02-25T02:34:41.408Z,97417.66
2023-02-25T02:37:27.384Z,97423.44
2023-02-25T02:40:09.969Z,97416.81
2023-02-25T02:42:45.188Z,97439.78
2023-02-25T02:45:19.105Z,97443.88
2023-02-25T02:47:53.158Z,97443.22
2023-02-25T02:50:28.489Z,97444.28
2023-02-25T02:53:01.436Z,97444.72
2023-02-25T02:55:35.748Z,97446.75
2023-02-25T02:58:11.697Z,97436.06
2023-02-25T03:01:01.054Z,97449.66
2023-02-25T03:03:37.178Z,97454.78
2023-02-25T03:06:09.075Z,97454.38
2023-02-25T03:08:44.713Z,97465.75
2023-02-25T03:11:13.857Z,97469.28
2023-02-25T03:13:42.629Z,97469.69
2023-02-25T03:16:15.301Z,97470.59
2023-02-25T03:18:50.217Z,97474.78
2023-02-25T03:21:22.749Z,97470.38
2023-02-25T03:23:52.468Z,97464.16
2023-02-25T03:26:27.747Z,97455.53
2023-02-25T03:29:02.048Z,97473.06
2023-02-25T03:31:37.518Z,97469.09
2023-02-25T03:34:11.204Z,97473.28
2023-02-25T03:36:43.095Z,97469.09
2023-02-25T03:39:16.834Z,97464.84
2023-02-25T03:41:49.990Z,97471.25
2023-02-25T03:44:22.662Z,97482.88
2023-02-25T03:46:53.579Z,97482.88
2023-02-25T03:49:30.333Z,97476.81
2023-02-25T03:52:02.962Z,97485.50
2023-02-25T03:54:31.428Z,97481.16
2023-02-25T03:57:03.271Z,97472.50
2023-02-25T03:59:31.671Z,97485.03
2023-02-25T04:02:02.073Z,97504.63
2023-02-25T04:04:31.924Z,97499.34
2023-02-25T04:07:00.285Z,97501.41
2023-02-25T04:09:28.677Z,97494.41
2023-02-25T04:11:57.276Z,97499.06
2023-02-25T04:14:26.314Z,97513.94
2023-02-25T04:16:54.751Z,97510.88
2023-02-25T04:19:23.755Z,97514.16
2023-02-25T04:21:55.984Z,97513.50
2023-02-25T04:24:24.415Z,97510.84
2023-02-25T04:26:58.254Z,97514.00
2023-02-25T04:29:27.052Z,97513.63
2023-02-25T04:31:55.522Z,97524.22
2023-02-25T04:34:24.098Z,97506.41
2023-02-25T04:36:53.086Z,97515.78
2023-02-25T04:39:22.858Z,97520.72
2023-02-25T04:41:51.266Z,97504.66
2023-02-25T04:44:19.519Z,97514.34
2023-02-25T04:46:51.630Z,97514.97
2023-02-25T04:49:21.703Z,97519.69
2023-02-25T04:51:52.695Z,97529.91
2023-02-25T04:54:23.062Z,97503.66
2023-02-25T04:56:51.363Z,97526.50
2023-02-25T04:59:19.643Z,97526.47
2023-02-25T05:01:50.039Z,97528.72
2023-02-25T05:04:18.374Z,97539.56
2023-02-25T05:06:46.700Z,97528.75
2023-02-25T05:09:14.955Z,97519.69
2023-02-25T05:11:44.608Z,97530.09
2023-02-25T05:14:12.875Z,97527.13
2023-02-25T05:16:41.323Z,97525.06
2023-02-25T05:19:09.735Z,97521.31
2023-02-25T05:21:38.041Z,97528.94
2023-02-25T05:24:07.270Z,97519.91
2023-02-25T05:26:35.580Z,97528.94
2023-02-25T05:29:05.513Z,97528.91
2023-02-25T05:31:34.753Z,97524.19
2023-02-25T05:34:03.686Z,97526.13
2023-02-25T05:36:32.070Z,97522.44
2023-02-25T05:39:02.604Z,97522.03
2023-02-25T05:41:31.530Z,97517.34
2023-02-25T05:43:59.887Z,97514.41
2023-02-25T05:46:29.932Z,97517.22
2023-02-25T05:48:58.231Z,97516.25
2023-02-25T05:51:26.555Z,97513.59
2023-02-25T05:53:54.933Z,97514.97
2023-02-25T05:56:26.177Z,97519.72
2023-02-25T05:58:55.338Z,97502.59
2023-02-25T06:01:27.636Z,97519.97
2023-02-25T06:03:58.526Z,97524.63
2023-02-25T06:06:28.542Z,97537.69
2023-02-25T06:08:57.212Z,97536.91
2023-02-25T06:11:27.981Z,97539.22
2023-02-25T06:13:58.200Z,97540.84
2023-02-25T06:16:32.640Z,97541.66
2023-02-25T06:19:02.970Z,97558.13
2023-02-25T06:21:31.780Z,97539.34
2023-02-25T06:24:00.316Z,97549.66
2023-02-25T06:26:28.781Z,97558.44
2023-02-25T06:28:58.058Z,97558.19
2023-02-25T06:31:26.407Z,97552.59
2023-02-25T06:33:55.925Z,97551.34
2023-02-25T06:36:25.987Z,97546.19
2023-02-25T06:38:54.833Z,97560.31
2023-02-25T06:41:23.849Z,97559.34
2023-02-25T06:43:52.898Z,97549.72
2023-02-25T06:46:24.822Z,97549.47
2023-02-25T06:48:53.854Z,97561.19
2023-02-25T06:51:23.053Z,97563.09
2023-02-25T06:53:53.075Z,97560.81
2023-02-25T06:56:22.351Z,97578.72
2023-02-25T06:58:52.573Z,97587.66
2023-02-25T07:01:21.336Z,97597.34
2023-02-25T07:03:49.758Z,97584.34
2023-02-25T07:06:18.416Z,97589.38
2023-02-25T07:08:47.067Z,97589.06
2023-02-25T07:11:29.552Z,97588.56
2023-02-25T07:13:58.481Z,97584.09
2023-02-25T07:16:29.766Z,97583.41
2023-02-25T07:19:01.735Z,97593.72
2023-02-25T07:21:30.941Z,97594.34
2023-02-25T07:23:59.461Z,97594.81
2023-02-25T07:26:29.328Z,97596.44
2023-02-25T07:28:58.359Z,97600.41
2023-02-25T07:31:28.508Z,97598.38
2023-02-25T07:34:00.007Z,97598.66
2023-02-25T07:36:30.684Z,97586.75
2023-02-25T07:38:59.042Z,97583.72
2023-02-25T07:41:29.649Z,97581.91
2023-02-25T07:44:03.435Z,97584.34
2023-02-25T07:46:32.240Z,97582.31
2023-02-25T07:49:00.802Z,97583.53
2023-02-25T07:51:29.287Z,97587.78
2023-02-25T07:54:00.592Z,97587.81
2023-02-25T07:56:31.809Z,97587.91
2023-02-25T07:59:01.298Z,97592.84
2023-02-25T08:01:33.115Z,97592.13
2023-02-25T08:04:04.615Z,97585.19
2023-02-25T08:06:35.817Z,97593.09
2023-02-25T08:09:05.697Z,97585.09
2023-02-25T08:11:35.539Z,97581.09
2023-02-25T08:14:04.911Z,97576.69
2023-02-25T08:16:35.879Z,97591.25
2023-02-25T08:19:05.690Z,97593.81
2023-02-25T08:21:34.553Z,97608.09
2023-02-25T08:24:02.942Z,97608.53
2023-02-25T08:26:31.340Z,97600.41
2023-02-25T08:29:01.044Z,97604.81
2023-02-25T08:31:29.730Z,97609.50
2023-02-25T08:33:59.380Z,97602.84
2023-02-25T08:36:30.473Z,97607.84
2023-02-25T08:39:00.009Z,97595.47
2023-02-25T08:41:32.031Z,97587.63
2023-02-25T08:44:02.243Z,97595.97
2023-02-25T08:46:33.767Z,97588.50
2023-02-25T08:49:02.493Z,97596.31
2023-02-25T08:51:34.949Z,97590.81
2023-02-25T08:54:05.527Z,97577.34
2023-02-25T08:56:35.127Z,97599.84
2023-02-25T08:59:06.095Z,97598.84
2023-02-25T09:01:45.678Z,97606.06
2023-02-25T09:04:15.651Z,97603.09
2023-02-25T09:06:47.311Z,97598.31
2023-02-25T09:09:16.357Z,97586.63
2023-02-25T09:11:45.534Z,97581.03
2023-02-25T09:14:16.342Z,97595.47
2023-02-25T09:16:45.249Z,97586.84
2023-02-25T09:19:15.791Z,97587.34
2023-02-25T09:21:44.855Z,97589.66
2023-02-25T09:24:13.291Z,97588.97
2023-02-25T09:26:41.828Z,97593.88
2023-02-25T09:29:10.534Z,97586.72
2023-02-25T09:31:40.415Z,97593.28
2023-02-25T09:34:11.181Z,97587.94
2023-02-25T09:36:39.597Z,97579.63
2023-02-25T09:39:10.137Z,97567.13
2023-02-25T09:41:46.043Z,97587.56
2023-02-25T09:44:17.809Z,97581.97
2023-02-25T09:46:52.554Z,97574.59
2023-02-25T09:49:29.740Z,97575.66
2023-02-25T09:52:04.200Z,97586.88
2023-02-25T09:54:39.510Z,97579.03
2023-02-25T09:57:08.690Z,97580.91
2023-02-25T09:59:36.995Z,97583.03
2023-02-25T10:02:25.181Z,97586.88
2023-02-25T10:05:07.857Z,97581.22
2023-02-25T10:07:42.485Z,97590.63
2023-02-25T10:10:20.985Z,97589.66
2023-02-25T10:12:57.885Z,97583.28
2023-02-25T10:15:37.338Z,97577.50
2023-02-25T10:18:20.616Z,97593.16
2023-02-25T10:21:03.341Z,97594.00
2023-02-25T10:23:43.989Z,97587.97
2023-02-25T10:26:18.965Z,97573.53
2023-02-25T10:28:51.631Z,97581.63
2023-02-25T10:31:21.687Z,97580.94
2023-02-25T10:33:54.098Z,97566.06
2023-02-25T10:36:28.075Z,97562.78
2023-02-25T10:38:56.444Z,97568.84
2023-02-25T10:41:26.728Z,97559.28
2023-02-25T10:43:56.757Z,97561.66
2023-02-25T10:46:34.049Z,97558.44
2023-02-25T10:49:16.621Z,97561.38
2023-02-25T10:52:03.124Z,97552.94
2023-02-25T10:54:33.291Z,97556.34
2023-02-25T10:57:08.368Z,97556.88
2023-02-25T10:59:39.337Z,97557.66
2023-02-25T11:02:23.446Z,97552.41
2023-02-25T11:04:54.696Z,97554.94
2023-02-25T11:07:35.543Z,97557.22
2023-02-25T11:10:10.258Z,97555.53
2023-02-25T11:12:43.648Z,97556.91
2023-02-25T11:15:43.473Z,97561.38
2023-02-25T11:18:23.143Z,97556.91
2023-02-25T11:20:57.039Z,97548.50
2023-02-25T11:23:36.915Z,97555.66
2023-02-25T11:26:07.768Z,97544.41
2023-02-25T11:28:41.323Z,97552.13
2023-02-25T11:31:13.648Z,97547.56
2023-02-25T11:33:45.407Z,97544.50
2023-02-25T11:36:23.497Z,97551.03
2023-02-25T11:39:06.997Z,97562.75
2023-02-25T11:41:35.281Z,97558.59
2023-02-25T11:44:20.315Z,97554.19
2023-02-25T11:46:57.687Z,97563.09
2023-02-25T11:49:35.707Z,97561.94
2023-02-25T11:52:14.319Z,97560.78
2023-02-25T11:54:51.947Z,97554.31
2023-02-25T11:57:29.226Z,97549.78
2023-02-25T12:00:14.689Z,97553.38
2023-02-25T12:02:52.318Z,97569.78
2023-02-25T12:05:53.146Z,97567.88
2023-02-25T12:08:40.172Z,97573.41
2023-02-25T12:11:46.025Z,97575.28
2023-02-25T12:14:56.615Z,97577.28
2023-02-25T12:17:53.791Z,97541.81
2023-02-25T12:21:00.650Z,97575.38
2023-02-25T12:24:10.852Z,97583.22
2023-02-25T12:27:03.037Z,97577.38
2023-02-25T12:29:52.723Z,97581.44
2023-02-25T12:32:53.723Z,97584.34
2023-02-25T12:35:52.867Z,97585.94
2023-02-25T12:38:47.962Z,97565.94
2023-02-25T12:41:28.438Z,97579.88
2023-02-25T12:44:06.785Z,97572.19
2023-02-25T12:46:59.066Z,97576.47
2023-02-25T12:49:46.474Z,97563.69
2023-02-25T12:52:35.468Z,97562.44
2023-02-25T12:55:36.088Z,97568.06
2023-02-25T12:58:33.573Z,97550.47
2023-02-25T13:01:17.948Z,97536.69
2023-02-25T13:04:11.921Z,97530.00
2023-02-25T13:07:01.250Z,97508.03
2023-02-25T13:10:01.894Z,97514.84
2023-02-25T13:12:47.502Z,97511.91
2023-02-25T13:15:21.780Z,97505.56
2023-02-25T13:18:05.833Z,97508.63
2023-02-25T13:20:54.897Z,97513.63
2023-02-25T13:23:58.043Z,97509.19
2023-02-25T13:26:39.871Z,97505.81
2023-02-25T13:29:25.737Z,97516.53
2023-02-25T13:32:10.221Z,97514.09
2023-02-25T13:34:46.255Z,97507.00
2023-02-25T13:37:37.893Z,97510.59
2023-02-25T13:40:21.498Z,97515.88
2023-02-25T13:43:20.149Z,97516.94
2023-02-25T13:45:58.501Z,97516.56
2023-02-25T13:48:44.354Z,97507.09
2023-02-25T13:51:34.451Z,97519.72
2023-02-25T13:54:21.507Z,97511.31
2023-02-25T13:56:57.953Z,97509.06
2023-02-25T13:59:47.676Z,97504.56
2023-02-25T14:02:45.135Z,97496.53
2023-02-25T14:05:31.563Z,97505.06
2023-02-25T14:08:17.360Z,97511.38
2023-02-25T14:10:54.330Z,97514.69
2023-02-25T14:13:59.460Z,97516.28
2023-02-25T14:16:55.528Z,97519.94
2023-02-25T14:19:35.618Z,97514.34
2023-02-25T14:22:25.593Z,97523.00
2023-02-25T14:25:03.463Z,97524.03
2023-02-25T14:27:40.371Z,97512.34
2023-02-25T14:30:26.685Z,97504.66
2023-02-25T14:33:21.860Z,97503.09
2023-02-25T14:36:08.959Z,97501.00
2023-02-25T14:38:55.303Z,97506.28
2023-02-25T14:41:35.155Z,97502.88
2023-02-25T14:44:12.677Z,97512.13
2023-02-25T14:46:46.699Z,97505.03
2023-02-25T14:49:21.803Z,97515.84
2023-02-25T14:52:07.202Z,97501.09
2023-02-25T14:55:06.033Z,97495.72
2023-02-25T14:58:06.116Z,97514.94
2023-02-25T15:01:06.740Z,97524.94
2023-02-25T15:04:05.088Z,97519.38
2023-02-25T15:06:53.352Z,97523.19
2023-02-25T15:10:02.689Z,97529.88
2023-02-25T15:12:59.370Z,97524.47
2023-02-25T15:15:40.477Z,97529.66
2023-02-25T15:18:46.665Z,97529.66
2023-02-25T15:21:37.150Z,97540.19
2023-02-25T15:24:11.543Z,97533.31
2023-02-25T15:26:45.869Z,97543.59
2023-02-25T15:29:57.922Z,97557.84
2023-02-25T15:32:29.971Z,97581.19
2023-02-25T15:35:01.108Z,97582.88
2023-02-25T15:37:33.325Z,97589.22
2023-02-25T15:40:24.318Z,97605.38
2023-02-25T15:42:54.912Z,97600.19
2023-02-25T15:45:39.073Z,97605.13
2023-02-25T15:48:42.004Z,97604.91
2023-02-25T15:51:14.526Z,97602.63
2023-02-25T15:53:48.245Z,97586.94
2023-02-25T15:56:58.928Z,97582.97
2023-02-25T15:59:45.174Z,97581.53
2023-02-25T16:02:41.828Z,97583.34
2023-02-25T16:05:20.499Z,97574.63
2023-02-25T16:07:51.875Z,97585.94
2023-02-25T16:10:26.487Z,97583.59
2023-02-25T16:12:58.358Z,97582.22
2023-02-25T16:15:32.354Z,97578.19
2023-02-25T16:18:15.116Z,97585.91
2023-02-25T16:20:46.522Z,97588.47
2023-02-25T16:23:16.768Z,97596.28
2023-02-25T16:25:54.883Z,97604.19
2023-02-25T16:28:34.392Z,97606.06
2023-02-25T16:31:15.665Z,97621.91
2023-02-25T16:33:53.157Z,97617.34
2023-02-25T16:36:32.252Z,97621.56
2023-02-25T16:39:04.667Z,97616.56
2023-02-25T16:41:38.589Z,97632.13
2023-02-25T16:44:07.995Z,97633.19
2023-02-25T16:46:39.168Z,97635.78
2023-02-25T16:49:19.071Z,97631.53
2023-02-25T16:51:48.672Z,97632.28
2023-02-25T16:54:22.417Z,97636.19
2023-02-25T16:56:56.534Z,97639.69
2023-02-25T16:59:25.256Z,97644.00
2023-02-25T17:01:58.495Z,97653.28
2023-02-25T17:04:32.489Z,97668.50
2023-02-25T17:07:12.210Z,97666.78
2023-02-25T17:09:48.538Z,97671.41
2023-02-25T17:12:20.961Z,97676.59
2023-02-25T17:14:51.839Z,97676.59
2023-02-25T17:17:26.017Z,97682.19
2023-02-25T17:19:57.592Z,97690.97
2023-02-25T17:22:27.424Z,97699.84
2023-02-25T17:24:59.284Z,97731.56
2023-02-25T17:27:28.545Z,97769.56
2023-02-25T17:29:56.680Z,97765.19
2023-02-25T17:32:26.988Z,97762.63
2023-02-25T17:34:58.718Z,97742.41
2023-02-25T17:37:28.370Z,97748.13
2023-02-25T17:39:57.122Z,97750.47
2023-02-25T17:42:30.015Z,97755.44
2023-02-25T17:44:58.598Z,97757.66
2023-02-25T17:47:28.178Z,97726.78
2023-02-25T17:49:59.038Z,97753.06
2023-02-25T17:52:29.764Z,97754.97
2023-02-25T17:55:00.035Z,97756.16
2023-02-25T17:57:29.366Z,97768.09
2023-02-25T18:00:04.203Z,97762.31
2023-02-25T18:02:41.285Z,97767.97
2023-02-25T18:05:30.290Z,97772.19
2023-02-25T18:08:19.432Z,97779.78
2023-02-25T18:10:51.091Z,97782.69
2023-02-25T18:13:21.573Z,97791.09
2023-02-25T18:16:09.696Z,97790.63
2023-02-25T18:18:37.735Z,97795.22
2023-02-25T18:21:07.404Z,97799.94
2023-02-25T18:23:35.549Z,97802.75
2023-02-25T18:26:17.352Z,97807.00
2023-02-25T18:28:46.121Z,97805.78
2023-02-25T18:31:16.905Z,97807.19
2023-02-25T18:33:46.182Z,97801.28
2023-02-25T18:36:20.615Z,97810.25
2023-02-25T18:38:49.538Z,97814.94
2023-02-25T18:41:19.109Z,97815.59
2023-02-25T18:43:47.191Z,97817.00
2023-02-25T18:46:15.726Z,97808.56
2023-02-25T18:48:44.229Z,97817.69
2023-02-25T18:51:14.911Z,97816.13
2023-02-25T18:53:43.654Z,97817.13
2023-02-25T18:56:16.221Z,97831.31
2023-02-25T18:58:45.713Z,97821.22
2023-02-25T19:01:20.239Z,97805.19
2023-02-25T19:03:48.742Z,97818.22
2023-02-25T19:06:17.116Z,97829.94
2023-02-25T19:08:45.448Z,97831.47
2023-02-25T19:11:19.064Z,97821.13
2023-02-25T19:13:49.245Z,97827.53
2023-02-25T19:16:19.251Z,97830.50
2023-02-25T19:18:48.543Z,97828.66
2023-02-25T19:21:19.055Z,97841.38
2023-02-25T19:23:51.636Z,97832.69
2023-02-25T19:26:21.110Z,97839.97
2023-02-25T19:28:51.602Z,97846.94
2023-02-25T19:31:30.200Z,97849.78
2023-02-25T19:33:58.909Z,97853.09
2023-02-25T19:36:27.536Z,97861.16
2023-02-25T19:38:56.439Z,97864.81
2023-02-25T19:41:25.170Z,97863.59
2023-02-25T19:43:54.825Z,97879.41
2023-02-25T19:46:23.868Z,97859.81
2023-02-25T19:48:52.576Z,97867.16
2023-02-25T19:51:21.061Z,97874.25
2023-02-25T19:53:51.849Z,97890.56
2023-02-25T19:56:22.079Z,97884.56
2023-02-25T19:58:50.877Z,97888.09
2023-02-25T20:01:21.241Z,97910.88
2023-02-25T20:03:51.109Z,97896.16
2023-02-25T20:06:23.368Z,97896.13
2023-02-25T20:08:53.716Z,97894.75
2023-02-25T20:11:25.305Z,97911.19
2023-02-25T20:13:53.810Z,97923.06
2023-02-25T20:16:25.360Z,97917.50
2023-02-25T20:18:56.274Z,97928.56
2023-02-25T20:21:27.345Z,97914.38
2023-02-25T20:23:58.595Z,97934.59
2023-02-25T20:26:29.112Z,97937.22
2023-02-25T20:28:57.929Z,97928.53
2023-02-25T20:31:28.092Z,97930.84
2023-02-25T20:33:58.288Z,97939.88
2023-02-25T20:36:29.638Z,97946.91
2023-02-25T20:39:18.577Z,97946.72
2023-02-25T20:41:47.942Z,97935.03
2023-02-25T20:44:16.807Z,97949.31
2023-02-25T20:46:47.279Z,97961.72
2023-02-25T20:49:18.858Z,97961.09
2023-02-25T20:51:50.231Z,97950.00
2023-02-25T20:54:20.054Z,97956.00
2023-02-25T20:56:49.460Z,97964.31
2023-02-25T20:59:19.318Z,97970.13
2023-02-25T21:01:49.122Z,97972.13
2023-02-25T21:04:17.272Z,97987.56
2023-02-25T21:06:47.565Z,97972.06
2023-02-25T21:09:15.904Z,97963.34
2023-02-25T21:11:45.181Z,97972.81
2023-02-25T21:14:16.607Z,97966.25
2023-02-25T21:16:45.032Z,97974.41
2023-02-25T21:19:14.613Z,97972.69
2023-02-25T21:21:42.667Z,97977.59
2023-02-25T21:24:12.436Z,97972.06
2023-02-25T21:26:40.405Z,97967.47
2023-02-25T21:29:08.775Z,97976.63
2023-02-25T21:31:37.655Z,97981.06
2023-02-25T21:34:06.606Z,97987.31
2023-02-25T21:36:36.283Z,97990.28
2023-02-25T21:39:04.678Z,97990.63
2023-02-25T21:41:32.865Z,97993.94
2023-02-25T21:44:01.063Z,97991.81
2023-02-25T21:46:29.442Z,98004.59
2023-02-25T21:48:57.505Z,98009.34
2023-02-25T21:51:26.534Z,97996.19
2023-02-25T21:53:57.039Z,98007.16
2023-02-25T21:56:25.739Z,98005.44
2023-02-25T21:58:55.521Z,98004.81
2023-02-25T22:02:37.785Z,98013.31
2023-02-25T22:05:07.059Z,98011.22
2023-02-25T22:07:37.864Z,98012.38
2023-02-25T22:10:08.868Z,98010.47
2023-02-25T22:12:36.953Z,98009.19
2023-02-25T22:15:05.798Z,98006.38
2023-02-25T22:17:34.118Z,98012.59
2023-02-25T22:20:04.259Z,98006.53
2023-02-25T22:22:32.618Z,98012.41
2023-02-25T22:25:04.636Z,98008.22
2023-02-25T22:27:33.144Z,98014.59
2023-02-25T22:30:01.210Z,98020.78
2023-02-25T22:32:29.336Z,98010.56
2023-02-25T22:34:57.388Z,98017.09
2023-02-25T22:37:29.151Z,98025.91
2023-02-25T22:39:57.252Z,98029.50
2023-02-25T22:42:25.342Z,98032.63
2023-02-25T22:44:53.750Z,98033.06
2023-02-25T22:47:21.764Z,98042.34
2023-02-25T22:49:49.757Z,98035.00
2023-02-25T22:52:17.804Z,98034.09
2023-02-25T22:54:47.228Z,98034.34
2023-02-25T22:57:15.290Z,98031.34
2023-02-25T22:59:43.297Z,98035.28
2023-02-25T23:02:11.365Z,98031.91
2023-02-25T23:04:39.416Z,98041.81
2023-02-25T23:07:07.448Z,98033.06
2023-02-25T23:09:35.526Z,98035.72
2023-02-25T23:12:05.639Z,98029.84
2023-02-25T23:14:35.813Z,98042.53
2023-02-25T23:17:04.518Z,98045.59
2023-02-25T23:19:32.936Z,98045.88
2023-02-25T23:22:00.994Z,98040.09
2023-02-25T23:24:29.035Z,98046.50
2023-02-25T23:27:01.274Z,98049.56
2023-02-25T23:29:30.720Z,98048.09
2023-02-25T23:31:58.911Z,98053.47
2023-02-25T23:34:27.016Z,98050.38
2023-02-25T23:36:56.384Z,98051.22
2023-02-25T23:39:24.995Z,98055.31
2023-02-25T23:41:53.052Z,98058.22
2023-02-25T23:44:21.131Z,98056.03
2023-02-25T23:46:50.537Z,98056.31
2023-02-25T23:49:18.748Z,98056.91
2023-02-25T23:51:48.320Z,98067.97
2023-02-25T23:54:17.321Z,98065.84
2023-02-25T23:56:45.382Z,98062.47
2023-02-25T23:59:13.524Z,98060.63
